Time;durP1;ratioP1;P1;durP2;ratioP2;P2;SDS_P1;SDS_P2;PMS_P1;PMS_P2;Temp;Humidity;BMP_temperature;BMP_pressure;BME280_temperature;BME280_humidity;BME280_pressure;Samples;Min_cycle;Max_cycle;Signal;HPM_P1;HPM_P2
2020/12/09 00:06:10;;;;;;;15.27;12.70;;;;;;;;;;4234502;33;20101;-57
2020/12/09 00:08:36;;;;;;;12.35;11.05;;;;;;;;;;4231122;33;20615;-57
2020/12/09 00:11:02;;;;;;;15.32;12.27;;;;;;;;;;4244846;33;20440;-57
2020/12/09 00:13:28;;;;;;;15.88;11.98;;;;;;;;;;4240327;33;20113;-56
2020/12/09 00:15:53;;;;;;;13.32;11.90;;;;;;;;;;4244188;33;20135;-57
2020/12/09 00:18:19;;;;;;;15.15;11.80;;;;;;;;;;4247308;33;20127;-57
2020/12/09 00:20:45;;;;;;;15.10;11.98;;;;;;;;;;4247508;33;20211;-56
2020/12/09 00:23:11;;;;;;;14.65;12.35;;;;;;;;;;4233706;33;20105;-57
2020/12/09 00:25:37;;;;;;;13.68;12.37;;;;;;;;;;4242323;33;20203;-55
2020/12/09 00:28:03;;;;;;;13.30;11.93;;;;;;;;;;4247357;33;20090;-57
2020/12/09 00:30:29;;;;;;;16.02;12.40;;;;;;;;;;4247054;33;20520;-56
2020/12/09 00:32:55;;;;;;;14.55;13.05;;;;;;;;;;4247300;33;20100;-57
2020/12/09 00:35:21;;;;;;;13.57;12.10;;;;;;;;;;4247209;33;20113;-55
2020/12/09 00:37:47;;;;;;;14.20;12.73;;;;;;;;;;4247278;33;20113;-57
2020/12/09 00:40:12;;;;;;;13.00;11.73;;;;;;;;;;4240133;33;20223;-57
2020/12/09 00:42:38;;;;;;;14.23;12.20;;;;;;;;;;4247476;33;20204;-56
2020/12/09 00:45:05;;;;;;;14.23;12.75;;;;;;;;;;4247102;33;20140;-54
2020/12/09 00:47:31;;;;;;;13.40;11.93;;;;;;;;;;4246836;33;20541;-56
2020/12/09 00:52:41;;;;;;;14.40;11.52;;;;;;;;;;4247238;33;20540;-56
2020/12/09 00:55:08;;;;;;;15.57;13.27;;;;;;;;;;4246858;33;20112;-55
2020/12/09 00:57:34;;;;;;;14.73;12.27;;;;;;;;;;4247112;33;20124;-56
2020/12/09 00:59:59;;;;;;;14.10;12.63;;;;;;;;;;4246782;33;20723;-56
2020/12/09 01:02:25;;;;;;;18.05;13.30;;;;;;;;;;4247120;33;20105;-58
2020/12/09 01:04:51;;;;;;;14.57;12.40;;;;;;;;;;4246507;33;20107;-57
2020/12/09 01:07:21;;;;;;;13.62;12.23;;;;;;;;;;4246907;33;20089;-57
2020/12/09 01:09:47;;;;;;;14.65;12.77;;;;;;;;;;4246690;33;20196;-57
2020/12/09 01:12:13;;;;;;;14.75;13.23;;;;;;;;;;4234064;33;20108;-55
2020/12/09 01:14:40;;;;;;;14.52;12.73;;;;;;;;;;4246731;33;20131;-58
2020/12/09 01:17:06;;;;;;;15.95;13.23;;;;;;;;;;4247025;33;20108;-58
2020/12/09 01:19:31;;;;;;;18.00;13.18;;;;;;;;;;4246282;33;20116;-57
2020/12/09 01:21:58;;;;;;;14.23;12.73;;;;;;;;;;4246956;33;20136;-57
2020/12/09 01:24:23;;;;;;;17.02;14.05;;;;;;;;;;4233580;33;20116;-58
2020/12/09 01:26:49;;;;;;;15.93;13.60;;;;;;;;;;4233719;33;20120;-57
2020/12/09 01:29:15;;;;;;;17.90;13.98;;;;;;;;;;4246399;33;20132;-57
2020/12/09 01:31:42;;;;;;;17.98;14.35;;;;;;;;;;4233804;33;20113;-57
2020/12/09 01:34:08;;;;;;;16.80;14.63;;;;;;;;;;4246753;33;20231;-58
2020/12/09 01:36:34;;;;;;;15.65;13.88;;;;;;;;;;4233718;33;20124;-56
2020/12/09 01:39:00;;;;;;;19.30;15.30;;;;;;;;;;4246471;33;20104;-57
2020/12/09 01:41:26;;;;;;;16.98;15.13;;;;;;;;;;4234734;33;20442;-58
2020/12/09 01:43:53;;;;;;;20.27;15.13;;;;;;;;;;4232446;33;20096;-58
2020/12/09 01:46:29;;;;;;;15.52;13.88;;;;;;;;;;4245768;33;20127;-58
2020/12/09 01:48:55;;;;;;;18.30;14.85;;;;;;;;;;4246277;33;20137;-58
2020/12/09 01:51:23;;;;;;;18.12;14.05;;;;;;;;;;4246200;33;20536;-55
2020/12/09 01:53:49;;;;;;;17.45;15.18;;;;;;;;;;4221977;33;20264;-57
2020/12/09 01:56:15;;;;;;;19.12;16.15;;;;;;;;;;4233297;33;20520;-58
2020/12/09 01:58:41;;;;;;;20.20;15.90;;;;;;;;;;4233033;33;20115;-57
2020/12/09 02:01:07;;;;;;;19.40;16.02;;;;;;;;;;4233521;33;20112;-56
2020/12/09 02:03:33;;;;;;;21.62;16.65;;;;;;;;;;4233342;33;20116;-57
2020/12/09 02:05:59;;;;;;;22.30;17.55;;;;;;;;;;4246014;33;20533;-55
2020/12/09 02:08:25;;;;;;;25.40;18.83;;;;;;;;;;4246525;33;20237;-57
2020/12/09 02:10:58;;;;;;;22.67;17.70;;;;;;;;;;4247368;33;20441;-57
2020/12/09 02:13:25;;;;;;;23.62;18.65;;;;;;;;;;4248692;33;20530;-55
2020/12/09 02:15:50;;;;;;;23.08;18.67;;;;;;;;;;4247090;33;20424;-54
2020/12/09 02:18:16;;;;;;;24.55;18.87;;;;;;;;;;4248545;33;20113;-55
2020/12/09 02:20:42;;;;;;;26.45;20.77;;;;;;;;;;4248147;33;20452;-55
2020/12/09 02:23:08;;;;;;;23.98;18.87;;;;;;;;;;4248189;33;20518;-52
2020/12/09 02:25:34;;;;;;;24.02;19.00;;;;;;;;;;4248267;33;20131;-53
2020/12/09 02:28:00;;;;;;;24.67;18.80;;;;;;;;;;4248357;33;20196;-52
2020/12/09 02:30:25;;;;;;;28.45;22.85;;;;;;;;;;4248077;33;20140;-54
2020/12/09 02:32:51;;;;;;;26.73;21.92;;;;;;;;;;4248422;33;20280;-53
2020/12/09 02:35:17;;;;;;;20.75;18.45;;;;;;;;;;4248053;33;20113;-53
2020/12/09 02:37:43;;;;;;;19.25;16.52;;;;;;;;;;4248571;33;20097;-54
2020/12/09 02:40:09;;;;;;;21.77;17.10;;;;;;;;;;4248012;33;20215;-56
2020/12/09 02:42:35;;;;;;;17.25;15.38;;;;;;;;;;4248547;33;20112;-56
2020/12/09 02:45:01;;;;;;;24.02;16.33;;;;;;;;;;4247957;33;20136;-58
2020/12/09 02:47:27;;;;;;;20.60;16.62;;;;;;;;;;4235021;33;20203;-56
2020/12/09 02:49:53;;;;;;;18.12;16.17;;;;;;;;;;4247912;33;20113;-57
2020/12/09 02:52:19;;;;;;;20.30;18.12;;;;;;;;;;4248255;33;20203;-56
2020/12/09 02:54:45;;;;;;;24.45;12.90;;;;;;;;;;4247520;33;20192;-65
2020/12/09 02:57:20;;;;;;;25.77;21.60;;;;;;;;;;3857954;37;20539;-52
2020/12/09 02:59:46;;;;;;;30.95;27.75;;;;;;;;;;4407601;32;20113;-54
2020/12/09 03:02:12;;;;;;;32.55;29.05;;;;;;;;;;4389833;32;20118;-58
2020/12/09 03:04:37;;;;;;;31.20;27.80;;;;;;;;;;4389521;32;20587;-57
2020/12/09 03:07:03;;;;;;;37.03;29.85;;;;;;;;;;4394045;32;20144;-56
2020/12/09 03:09:29;;;;;;;32.90;28.20;;;;;;;;;;4401770;32;20096;-57
2020/12/09 03:11:55;;;;;;;33.13;28.25;;;;;;;;;;4389324;32;20208;-58
2020/12/09 03:14:21;;;;;;;28.90;25.70;;;;;;;;;;4387101;32;20121;-58
2020/12/09 03:16:47;;;;;;;32.00;25.37;;;;;;;;;;4387268;32;20132;-58
2020/12/09 03:19:13;;;;;;;27.10;24.20;;;;;;;;;;4385270;32;20112;-58
2020/12/09 03:21:40;;;;;;;28.83;24.63;;;;;;;;;;4385515;32;20129;-58
2020/12/09 03:24:07;;;;;;;27.65;24.45;;;;;;;;;;4387042;32;20121;-59
2020/12/09 03:26:33;;;;;;;33.63;24.67;;;;;;;;;;4387367;32;20101;-58
2020/12/09 03:28:59;;;;;;;29.17;24.37;;;;;;;;;;4388233;32;20116;-58
2020/12/09 03:31:25;;;;;;;29.42;23.60;;;;;;;;;;4389733;32;20105;-57
2020/12/09 03:33:51;;;;;;;27.87;23.48;;;;;;;;;;4389335;32;20098;-58
2020/12/09 03:36:17;;;;;;;28.80;24.60;;;;;;;;;;4403209;32;20116;-58
2020/12/09 03:38:45;;;;;;;28.12;24.42;;;;;;;;;;4404561;32;20204;-57
2020/12/09 03:41:11;;;;;;;31.48;25.60;;;;;;;;;;4390952;32;20121;-58
2020/12/09 03:43:37;;;;;;;31.33;26.77;;;;;;;;;;4389148;32;20125;-58
2020/12/09 03:46:02;;;;;;;32.63;27.33;;;;;;;;;;4389268;32;20125;-59
2020/12/09 03:48:28;;;;;;;31.80;25.95;;;;;;;;;;4387451;32;20198;-59
2020/12/09 03:50:54;;;;;;;24.30;21.42;;;;;;;;;;4388882;32;20113;-59
2020/12/09 03:53:21;;;;;;;20.52;18.15;;;;;;;;;;4388665;32;20191;-59
2020/12/09 03:55:48;;;;;;;18.27;16.20;;;;;;;;;;4398882;32;20129;-59
2020/12/09 03:58:13;;;;;;;20.30;17.20;;;;;;;;;;4402658;32;20192;-59
2020/12/09 04:00:40;;;;;;;22.80;17.17;;;;;;;;;;4403662;32;20121;-59
2020/12/09 04:03:06;;;;;;;21.12;18.10;;;;;;;;;;4404075;32;20116;-59
2020/12/09 04:05:31;;;;;;;22.42;18.45;;;;;;;;;;4402464;32;20435;-59
2020/12/09 04:07:57;;;;;;;28.67;20.10;;;;;;;;;;4397326;32;20086;-58
2020/12/09 04:10:23;;;;;;;25.62;19.20;;;;;;;;;;4393782;32;20182;-59
2020/12/09 04:12:49;;;;;;;29.23;20.40;;;;;;;;;;4392832;32;20114;-59
2020/12/09 04:15:15;;;;;;;25.42;18.90;;;;;;;;;;4379897;32;20180;-58
2020/12/09 04:17:41;;;;;;;24.23;18.08;;;;;;;;;;4393840;32;20129;-58
2020/12/09 04:20:07;;;;;;;23.25;17.12;;;;;;;;;;4392067;32;20197;-58
2020/12/09 04:22:33;;;;;;;20.62;14.63;;;;;;;;;;4393939;32;20110;-59
2020/12/09 04:24:59;;;;;;;19.55;14.95;;;;;;;;;;4393686;32;20120;-58
2020/12/09 04:27:25;;;;;;;18.27;15.32;;;;;;;;;;4394002;32;20120;-58
2020/12/09 04:29:51;;;;;;;20.90;14.40;;;;;;;;;;4393823;32;20128;-59
2020/12/09 04:32:17;;;;;;;17.52;13.45;;;;;;;;;;4393602;32;20110;-58
2020/12/09 04:34:43;;;;;;;14.77;13.27;;;;;;;;;;4393663;32;20185;-58
2020/12/09 04:37:09;;;;;;;15.80;13.70;;;;;;;;;;4392283;32;20100;-58
2020/12/09 04:39:35;;;;;;;16.83;15.13;;;;;;;;;;4393430;32;20117;-58
2020/12/09 04:42:01;;;;;;;17.12;14.50;;;;;;;;;;4394198;32;20129;-58
2020/12/09 04:44:27;;;;;;;19.25;16.15;;;;;;;;;;4393506;32;20127;-59
2020/12/09 04:46:53;;;;;;;17.35;15.40;;;;;;;;;;4394051;32;20109;-58
2020/12/09 04:49:23;;;;;;;16.60;14.20;;;;;;;;;;4391995;32;20541;-59
2020/12/09 04:52:26;;;;;;;15.73;12.98;;;;;;;;;;4392744;32;20456;-59
2020/12/09 04:54:53;;;;;;;19.17;16.50;;;;;;;;;;4383701;32;20205;-59
2020/12/09 04:57:25;;;;;;;20.37;18.27;;;;;;;;;;4379882;32;20092;-58
2020/12/09 04:59:59;;;;;;;18.58;16.65;;;;;;;;;;4393347;32;20094;-59
2020/12/09 05:02:50;;;;;;;16.83;14.45;;;;;;;;;;4392312;32;20097;-58
2020/12/09 05:05:17;;;;;;;16.70;14.10;;;;;;;;;;4392282;32;20146;-59
2020/12/09 05:07:47;;;;;;;15.90;12.07;;;;;;;;;;4393543;32;20090;-59
2020/12/09 05:10:15;;;;;;;15.45;13.13;;;;;;;;;;4393036;32;20452;-58
2020/12/09 05:12:43;;;;;;;14.90;12.50;;;;;;;;;;4393316;32;20206;-59
2020/12/09 05:15:22;;;;;;;15.63;14.02;;;;;;;;;;4393031;32;20617;-59
2020/12/09 05:18:08;;;;;;;15.05;13.45;;;;;;;;;;4392126;32;20100;-58
2020/12/09 05:20:38;;;;;;;18.10;13.68;;;;;;;;;;4392416;32;20181;-58
2020/12/09 05:23:05;;;;;;;16.80;15.00;;;;;;;;;;4393350;32;20119;-59
2020/12/09 05:25:36;;;;;;;21.95;15.88;;;;;;;;;;4393074;32;20094;-59
2020/12/09 05:28:02;;;;;;;20.37;15.55;;;;;;;;;;4393272;32;20151;-59
2020/12/09 05:30:48;;;;;;;18.95;16.33;;;;;;;;;;4392755;32;20294;-59
2020/12/09 05:33:17;;;;;;;16.20;13.23;;;;;;;;;;4393527;32;20140;-59
2020/12/09 05:35:43;;;;;;;18.05;14.32;;;;;;;;;;4378675;32;20112;-58
2020/12/09 05:38:18;;;;;;;20.45;15.18;;;;;;;;;;4393363;32;20124;-59
2020/12/09 05:40:45;;;;;;;19.08;16.42;;;;;;;;;;4392947;32;20202;-59
2020/12/09 05:43:11;;;;;;;15.48;13.75;;;;;;;;;;4393151;32;20217;-59
2020/12/09 05:45:37;;;;;;;17.80;14.48;;;;;;;;;;4392712;32;20110;-58
2020/12/09 05:48:21;;;;;;;19.33;14.55;;;;;;;;;;4391947;32;20192;-58
2020/12/09 05:50:54;;;;;;;20.50;14.93;;;;;;;;;;4392833;32;20149;-59
2020/12/09 05:53:21;;;;;;;17.20;13.50;;;;;;;;;;4392464;32;20097;-59
2020/12/09 05:55:47;;;;;;;16.12;13.70;;;;;;;;;;4391381;32;20210;-59
2020/12/09 05:58:21;;;;;;;19.15;14.70;;;;;;;;;;4391695;32;20177;-59
2020/12/09 06:01:04;;;;;;;16.98;13.27;;;;;;;;;;4381926;32;20106;-59
2020/12/09 06:03:31;;;;;;;16.27;13.82;;;;;;;;;;4377925;32;20137;-59
2020/12/09 06:06:29;;;;;;;16.62;14.05;;;;;;;;;;4389148;32;20092;-59
2020/12/09 06:08:59;;;;;;;19.45;15.75;;;;;;;;;;4392392;32;20295;-59
2020/12/09 06:11:32;;;;;;;21.40;16.67;;;;;;;;;;4392965;32;20226;-59
2020/12/09 06:13:58;;;;;;;21.58;16.35;;;;;;;;;;4392875;32;20093;-59
2020/12/09 06:16:28;;;;;;;20.37;16.23;;;;;;;;;;4392501;32;20441;-58
2020/12/09 06:18:55;;;;;;;19.83;16.73;;;;;;;;;;4392654;32;20448;-59
2020/12/09 06:21:21;;;;;;;20.50;16.00;;;;;;;;;;4392665;32;20085;-59
2020/12/09 06:23:48;;;;;;;19.10;16.42;;;;;;;;;;4392625;32;20157;-59
2020/12/09 06:26:14;;;;;;;23.00;15.70;;;;;;;;;;4392408;32;20127;-59
2020/12/09 06:28:47;;;;;;;24.65;16.87;;;;;;;;;;4391017;32;20247;-59
2020/12/09 06:31:14;;;;;;;21.42;16.12;;;;;;;;;;4390866;32;20096;-59
2020/12/09 06:33:53;;;;;;;20.02;16.52;;;;;;;;;;4392872;32;20175;-59
2020/12/09 06:36:26;;;;;;;20.70;15.43;;;;;;;;;;4392363;32;20116;-59
2020/12/09 06:39:04;;;;;;;17.30;14.13;;;;;;;;;;4392599;32;20116;-59
2020/12/09 06:41:56;;;;;;;14.48;12.68;;;;;;;;;;4392200;32;20187;-59
2020/12/09 06:44:23;;;;;;;16.58;13.60;;;;;;;;;;4392259;32;20444;-59
2020/12/09 06:46:50;;;;;;;15.68;13.50;;;;;;;;;;4392560;32;20625;-59
2020/12/09 06:49:32;;;;;;;17.23;13.93;;;;;;;;;;4392352;32;20100;-59
2020/12/09 06:52:10;;;;;;;15.82;14.20;;;;;;;;;;4391864;32;20128;-59
2020/12/09 06:54:40;;;;;;;16.92;14.52;;;;;;;;;;4392418;32;20116;-59
2020/12/09 06:57:19;;;;;;;15.98;13.85;;;;;;;;;;4392601;32;20468;-59
2020/12/09 06:59:47;;;;;;;15.75;13.38;;;;;;;;;;4387692;32;20244;-59
2020/12/09 07:02:29;;;;;;;20.12;13.88;;;;;;;;;;4375747;32;20113;-59
2020/12/09 07:04:55;;;;;;;16.77;13.95;;;;;;;;;;4375550;32;20516;-59
2020/12/09 07:07:33;;;;;;;16.73;13.88;;;;;;;;;;4377145;32;20125;-59
2020/12/09 07:10:00;;;;;;;15.77;13.20;;;;;;;;;;4376920;32;20192;-59
2020/12/09 07:12:26;;;;;;;17.25;14.77;;;;;;;;;;4376798;32;20516;-59
2020/12/09 07:14:53;;;;;;;15.15;13.32;;;;;;;;;;4376753;32;20120;-59
2020/12/09 07:17:30;;;;;;;16.20;13.73;;;;;;;;;;4377029;32;20121;-58
2020/12/09 07:19:56;;;;;;;15.43;12.55;;;;;;;;;;4380756;32;20120;-59
2020/12/09 07:22:22;;;;;;;19.52;14.13;;;;;;;;;;4392049;32;20576;-59
2020/12/09 07:24:48;;;;;;;20.73;16.00;;;;;;;;;;4387327;32;20113;-59
2020/12/09 07:27:14;;;;;;;19.17;15.45;;;;;;;;;;4377015;32;20592;-59
2020/12/09 07:29:41;;;;;;;21.70;18.20;;;;;;;;;;4376555;32;20536;-59
2020/12/09 07:32:08;;;;;;;31.02;22.35;;;;;;;;;;4376758;32;20121;-59
2020/12/09 07:34:56;;;;;;;28.48;22.55;;;;;;;;;;4376606;32;20112;-59
2020/12/09 07:37:27;;;;;;;28.17;22.05;;;;;;;;;;4377001;32;20456;-59
2020/12/09 07:39:54;;;;;;;32.20;24.45;;;;;;;;;;4376187;32;20197;-58
2020/12/09 07:42:21;;;;;;;21.50;18.05;;;;;;;;;;4377537;32;20189;-58
2020/12/09 07:44:48;;;;;;;20.27;15.38;;;;;;;;;;4378798;32;20106;-58
2020/12/09 07:47:20;;;;;;;20.02;15.73;;;;;;;;;;4379260;32;20093;-59
2020/12/09 07:49:50;;;;;;;21.20;16.23;;;;;;;;;;4378823;32;20204;-56
2020/12/09 07:52:25;;;;;;;21.55;17.35;;;;;;;;;;4379033;32;20101;-58
2020/12/09 07:54:52;;;;;;;24.55;18.30;;;;;;;;;;4383662;32;20601;-58
2020/12/09 07:57:18;;;;;;;23.25;18.50;;;;;;;;;;4380419;32;20157;-58
2020/12/09 07:59:44;;;;;;;28.20;22.45;;;;;;;;;;4392611;32;20085;-58
2020/12/09 08:02:18;;;;;;;30.27;22.90;;;;;;;;;;4394137;32;20199;-58
2020/12/09 08:04:45;;;;;;;45.70;30.25;;;;;;;;;;4393968;32;20122;-58
2020/12/09 08:07:15;;;;;;;50.38;33.53;;;;;;;;;;4394306;32;20222;-59
2020/12/09 08:09:41;;;;;;;44.72;30.50;;;;;;;;;;4389928;32;20082;-58
2020/12/09 08:12:07;;;;;;;40.40;24.23;;;;;;;;;;4379000;32;20094;-58
2020/12/09 08:14:33;;;;;;;53.53;33.25;;;;;;;;;;4381727;32;20124;-57
2020/12/09 08:16:59;;;;;;;73.82;41.30;;;;;;;;;;4393670;32;20133;-58
2020/12/09 08:19:25;;;;;;;59.85;37.22;;;;;;;;;;4391599;32;20193;-58
2020/12/09 08:22:05;;;;;;;51.80;33.55;;;;;;;;;;4378793;32;20551;-58
2020/12/09 08:24:31;;;;;;;49.28;34.42;;;;;;;;;;4378859;32;20202;-58
2020/12/09 08:26:57;;;;;;;28.85;21.55;;;;;;;;;;4377428;32;20193;-59
2020/12/09 08:29:22;;;;;;;54.28;36.70;;;;;;;;;;4378450;32;20176;-59
2020/12/09 08:32:01;;;;;;;39.08;28.27;;;;;;;;;;4378741;32;20098;-59
2020/12/09 08:34:27;;;;;;;33.03;24.30;;;;;;;;;;4378650;32;20182;-59
2020/12/09 08:36:53;;;;;;;28.73;22.42;;;;;;;;;;4378844;32;20128;-59
2020/12/09 08:39:18;;;;;;;30.37;19.45;;;;;;;;;;4378437;32;20144;-59
2020/12/09 08:41:46;;;;;;;31.30;23.00;;;;;;;;;;4378683;32;20132;-59
2020/12/09 08:44:12;;;;;;;22.30;17.90;;;;;;;;;;4377257;32;20214;-59
2020/12/09 08:46:38;;;;;;;22.05;17.87;;;;;;;;;;4378566;32;20539;-59
2020/12/09 08:49:04;;;;;;;21.30;16.98;;;;;;;;;;4378321;32;20110;-59
2020/12/09 08:51:31;;;;;;;20.00;16.20;;;;;;;;;;4378367;32;20098;-59
2020/12/09 08:53:58;;;;;;;21.40;15.65;;;;;;;;;;4378295;32;20513;-59
2020/12/09 08:56:25;;;;;;;20.73;15.38;;;;;;;;;;4392706;32;20121;-59
2020/12/09 08:58:51;;;;;;;17.20;14.18;;;;;;;;;;4393682;32;20094;-59
2020/12/09 09:01:16;;;;;;;15.13;12.73;;;;;;;;;;4393269;32;20124;-58
2020/12/09 09:03:45;;;;;;;17.48;13.35;;;;;;;;;;4393556;32;20512;-59
2020/12/09 09:06:10;;;;;;;16.77;14.52;;;;;;;;;;4393408;32;20156;-59
2020/12/09 09:08:36;;;;;;;14.95;13.13;;;;;;;;;;4393244;32;20120;-58
2020/12/09 09:11:02;;;;;;;20.40;13.62;;;;;;;;;;4393452;32;20128;-57
2020/12/09 09:13:28;;;;;;;15.32;13.73;;;;;;;;;;4392176;32;20189;-58
2020/12/09 09:15:54;;;;;;;19.40;14.63;;;;;;;;;;4393127;32;20106;-59
2020/12/09 09:18:21;;;;;;;15.07;13.48;;;;;;;;;;4393258;32;20102;-58
2020/12/09 09:20:48;;;;;;;15.32;13.52;;;;;;;;;;4393103;32;20124;-57
2020/12/09 09:23:14;;;;;;;16.12;13.62;;;;;;;;;;4392308;32;20109;-58
2020/12/09 09:25:40;;;;;;;18.10;14.38;;;;;;;;;;4393218;32;20218;-58
2020/12/09 09:28:06;;;;;;;16.67;13.70;;;;;;;;;;4393568;32;20289;-59
2020/12/09 09:30:32;;;;;;;18.83;15.52;;;;;;;;;;4392847;32;20140;-58
2020/12/09 09:32:58;;;;;;;19.83;12.77;;;;;;;;;;4393201;32;20113;-59
2020/12/09 09:35:24;;;;;;;15.00;12.98;;;;;;;;;;4392785;32;20112;-58
2020/12/09 09:37:50;;;;;;;15.63;12.37;;;;;;;;;;4391954;32;20447;-58
2020/12/09 09:40:15;;;;;;;13.93;11.80;;;;;;;;;;4392770;32;20198;-58
2020/12/09 09:42:41;;;;;;;14.63;11.50;;;;;;;;;;4392544;32;20112;-58
2020/12/09 09:45:08;;;;;;;16.40;11.65;;;;;;;;;;4379323;32;20124;-58
2020/12/09 09:47:35;;;;;;;14.63;12.27;;;;;;;;;;4379492;32;20128;-58
2020/12/09 09:50:01;;;;;;;15.02;11.50;;;;;;;;;;4388729;32;20529;-58
2020/12/09 09:52:27;;;;;;;17.05;12.75;;;;;;;;;;4377580;32;20126;-59
2020/12/09 09:54:53;;;;;;;15.02;12.15;;;;;;;;;;4387446;32;20125;-59
2020/12/09 09:57:19;;;;;;;14.57;11.88;;;;;;;;;;4348598;32;20094;-58
2020/12/09 09:59:44;;;;;;;16.83;12.32;;;;;;;;;;4351970;32;20110;-59
2020/12/09 10:02:10;;;;;;;17.60;12.88;;;;;;;;;;4346714;32;20130;-59
2020/12/09 10:04:36;;;;;;;15.75;12.23;;;;;;;;;;4349919;32;20205;-58
2020/12/09 10:07:03;;;;;;;13.15;11.70;;;;;;;;;;4362464;32;20125;-59
2020/12/09 10:09:29;;;;;;;16.45;12.43;;;;;;;;;;4362933;32;20550;-59
2020/12/09 10:11:55;;;;;;;16.52;12.43;;;;;;;;;;4347846;32;20137;-58
2020/12/09 10:14:21;;;;;;;16.73;12.73;;;;;;;;;;4347878;32;20476;-58
2020/12/09 10:16:47;;;;;;;19.10;13.40;;;;;;;;;;4350177;32;20118;-58
2020/12/09 10:19:13;;;;;;;18.37;13.05;;;;;;;;;;4347864;32;20618;-58
2020/12/09 10:21:39;;;;;;;16.80;14.48;;;;;;;;;;4349621;32;20122;-59
2020/12/09 10:24:06;;;;;;;15.75;13.62;;;;;;;;;;4362465;32;20809;-59
2020/12/09 10:26:36;;;;;;;15.10;13.25;;;;;;;;;;4363050;32;20118;-59
2020/12/09 10:29:07;;;;;;;14.57;12.65;;;;;;;;;;4352023;32;20492;-58
2020/12/09 10:31:37;;;;;;;16.35;12.65;;;;;;;;;;4346222;32;20105;-58
2020/12/09 10:34:03;;;;;;;18.17;13.27;;;;;;;;;;4355667;32;20121;-58
2020/12/09 10:36:29;;;;;;;17.45;13.50;;;;;;;;;;4362245;32;20094;-58
2020/12/09 10:38:55;;;;;;;16.62;13.55;;;;;;;;;;4362719;32;20548;-58
2020/12/09 10:41:21;;;;;;;16.98;12.88;;;;;;;;;;4362990;32;20113;-58
2020/12/09 10:43:51;;;;;;;19.60;15.07;;;;;;;;;;4362682;32;20190;-59
2020/12/09 10:46:18;;;;;;;16.83;13.27;;;;;;;;;;4362736;32;20118;-58
2020/12/09 10:48:44;;;;;;;21.48;14.25;;;;;;;;;;4361215;32;20174;-58
2020/12/09 10:51:10;;;;;;;17.17;13.60;;;;;;;;;;4362557;32;20113;-58
2020/12/09 10:53:36;;;;;;;17.37;13.40;;;;;;;;;;4362558;32;20441;-58
2020/12/09 10:56:02;;;;;;;18.02;13.90;;;;;;;;;;4387520;32;20105;-59
2020/12/09 10:58:28;;;;;;;16.37;13.35;;;;;;;;;;4392668;32;20219;-59
2020/12/09 11:00:55;;;;;;;17.30;13.80;;;;;;;;;;4392420;32;20121;-59
2020/12/09 11:03:21;;;;;;;17.67;14.15;;;;;;;;;;4392431;32;20113;-58
2020/12/09 11:05:47;;;;;;;20.58;15.85;;;;;;;;;;4392272;32;20103;-59
2020/12/09 11:08:14;;;;;;;19.65;14.15;;;;;;;;;;4392422;32;20089;-58
2020/12/09 11:10:40;;;;;;;16.48;14.02;;;;;;;;;;4392269;32;20429;-58
2020/12/09 11:13:06;;;;;;;16.85;14.45;;;;;;;;;;4392633;32;20113;-58
2020/12/09 11:15:33;;;;;;;18.60;14.48;;;;;;;;;;4392184;32;20101;-59
2020/12/09 11:17:59;;;;;;;23.55;14.40;;;;;;;;;;4393473;32;20121;-59
2020/12/09 11:20:26;;;;;;;19.45;13.85;;;;;;;;;;4394479;32;20531;-59
2020/12/09 11:22:52;;;;;;;17.33;14.27;;;;;;;;;;4394970;32;20449;-58
2020/12/09 11:25:17;;;;;;;19.20;14.10;;;;;;;;;;4394595;32;20155;-59
2020/12/09 11:27:43;;;;;;;16.12;14.23;;;;;;;;;;4394618;32;20460;-58
2020/12/09 11:30:09;;;;;;;21.60;13.68;;;;;;;;;;4394419;32;20228;-59
2020/12/09 11:32:35;;;;;;;21.40;14.75;;;;;;;;;;4394753;32;20094;-59
2020/12/09 11:35:02;;;;;;;20.17;14.90;;;;;;;;;;4394417;32;20184;-58
2020/12/09 11:37:28;;;;;;;18.80;14.25;;;;;;;;;;4392955;32;20100;-59
2020/12/09 11:39:53;;;;;;;22.62;18.45;;;;;;;;;;4392820;32;20105;-58
2020/12/09 11:42:19;;;;;;;24.02;17.17;;;;;;;;;;4394692;32;20175;-56
2020/12/09 11:44:45;;;;;;;27.60;20.85;;;;;;;;;;4394487;32;20137;-56
2020/12/09 11:47:11;;;;;;;28.80;24.00;;;;;;;;;;4394770;32;20132;-57
2020/12/09 11:49:37;;;;;;;24.70;21.10;;;;;;;;;;4394764;32;20116;-50
2020/12/09 11:52:03;;;;;;;25.60;21.75;;;;;;;;;;4394644;32;20145;-57
2020/12/09 11:54:29;;;;;;;24.00;17.77;;;;;;;;;;4405776;32;20113;-50
2020/12/09 11:56:57;;;;;;;25.17;19.12;;;;;;;;;;4394383;32;20212;-50
2020/12/09 11:59:23;;;;;;;23.67;19.23;;;;;;;;;;4394173;32;20479;-54
2020/12/09 12:01:49;;;;;;;23.00;18.67;;;;;;;;;;4405410;32;20102;-54
2020/12/09 12:04:15;;;;;;;23.50;18.70;;;;;;;;;;4394471;32;20116;-52
2020/12/09 12:06:41;;;;;;;29.70;19.05;;;;;;;;;;4394264;32;20113;-50
2020/12/09 12:09:07;;;;;;;24.92;20.10;;;;;;;;;;4392714;32;20105;-55
2020/12/09 12:11:33;;;;;;;30.17;20.00;;;;;;;;;;4393998;32;20116;-55
2020/12/09 12:13:59;;;;;;;23.15;17.40;;;;;;;;;;4394151;32;20143;-56
2020/12/09 12:16:25;;;;;;;23.87;18.45;;;;;;;;;;4394074;32;20204;-56
2020/12/09 12:18:51;;;;;;;24.80;19.85;;;;;;;;;;4394123;32;20133;-53
2020/12/09 12:21:19;;;;;;;38.30;30.80;;;;;;;;;;4394331;32;20128;-51
2020/12/09 12:23:48;;;;;;;38.50;30.27;;;;;;;;;;4393968;32;20166;-51
2020/12/09 12:26:15;;;;;;;37.80;27.52;;;;;;;;;;4393957;32;20184;-52
2020/12/09 12:28:41;;;;;;;33.15;22.48;;;;;;;;;;4393600;32;20441;-50
2020/12/09 12:31:11;;;;;;;32.15;20.58;;;;;;;;;;4393974;32;20307;-53
2020/12/09 12:33:37;;;;;;;25.48;19.87;;;;;;;;;;4393944;32;20100;-51
2020/12/09 12:36:04;;;;;;;33.65;22.77;;;;;;;;;;4393965;32;20104;-52
2020/12/09 12:38:30;;;;;;;31.10;22.17;;;;;;;;;;4394125;32;20145;-49
2020/12/09 12:40:56;;;;;;;39.28;28.92;;;;;;;;;;4393777;32;20526;-55
2020/12/09 12:43:22;;;;;;;45.63;32.28;;;;;;;;;;4394131;32;20172;-53
2020/12/09 12:45:48;;;;;;;37.85;29.40;;;;;;;;;;4393797;32;20136;-59
2020/12/09 12:48:14;;;;;;;37.67;28.60;;;;;;;;;;4393846;32;20098;-57
2020/12/09 12:50:40;;;;;;;36.08;26.70;;;;;;;;;;4393724;32;20111;-54
2020/12/09 12:53:05;;;;;;;37.70;26.10;;;;;;;;;;4391793;32;20468;-57
2020/12/09 12:55:31;;;;;;;32.58;24.15;;;;;;;;;;4390468;32;20136;-53
2020/12/09 12:57:57;;;;;;;33.78;25.12;;;;;;;;;;4393146;32;20125;-58
2020/12/09 13:00:23;;;;;;;30.92;23.15;;;;;;;;;;4378631;32;20209;-57
2020/12/09 13:02:49;;;;;;;31.73;23.87;;;;;;;;;;4378583;32;20084;-57
2020/12/09 13:05:15;;;;;;;28.92;21.67;;;;;;;;;;4378272;32;20109;-57
2020/12/09 13:07:42;;;;;;;32.95;23.52;;;;;;;;;;4377120;32;20594;-55
2020/12/09 13:10:07;;;;;;;27.58;21.25;;;;;;;;;;4378174;32;20101;-56
2020/12/09 13:12:33;;;;;;;28.20;20.00;;;;;;;;;;4378292;32;20105;-58
2020/12/09 13:14:59;;;;;;;24.25;20.15;;;;;;;;;;4390372;32;20515;-57
2020/12/09 13:17:25;;;;;;;27.08;19.12;;;;;;;;;;4391677;32;20436;-56
2020/12/09 13:19:52;;;;;;;24.10;18.02;;;;;;;;;;4391694;32;20508;-54
2020/12/09 13:22:18;;;;;;;24.65;18.60;;;;;;;;;;4393398;32;20437;-57
2020/12/09 13:24:44;;;;;;;21.33;17.55;;;;;;;;;;4391793;32;20124;-57
2020/12/09 13:27:10;;;;;;;21.40;17.65;;;;;;;;;;4391684;32;20456;-56
2020/12/09 13:29:36;;;;;;;26.90;20.15;;;;;;;;;;4383342;32;20198;-56
2020/12/09 13:32:02;;;;;;;26.25;20.25;;;;;;;;;;4378197;32;20648;-56
2020/12/09 13:34:28;;;;;;;28.25;20.50;;;;;;;;;;4378272;32;20121;-53
2020/12/09 13:36:57;;;;;;;27.23;21.37;;;;;;;;;;4377857;32;20126;-56
2020/12/09 13:39:23;;;;;;;28.95;22.85;;;;;;;;;;4377658;32;20189;-57
2020/12/09 13:41:49;;;;;;;29.17;22.55;;;;;;;;;;4377676;32;20484;-54
2020/12/09 13:44:15;;;;;;;25.77;21.35;;;;;;;;;;4381160;32;20188;-55
2020/12/09 13:46:42;;;;;;;20.12;17.87;;;;;;;;;;4377985;32;20118;-56
2020/12/09 13:49:08;;;;;;;24.92;17.05;;;;;;;;;;4377931;32;20101;-51
2020/12/09 13:51:34;;;;;;;22.23;18.83;;;;;;;;;;4377972;32;20173;-58
2020/12/09 13:54:00;;;;;;;22.62;17.80;;;;;;;;;;4383758;32;20109;-50
2020/12/09 13:56:27;;;;;;;22.90;16.35;;;;;;;;;;4392714;32;20136;-54
2020/12/09 13:58:53;;;;;;;19.98;15.57;;;;;;;;;;4392848;32;20121;-50
2020/12/09 14:01:19;;;;;;;22.83;16.30;;;;;;;;;;4392935;32;20433;-53
2020/12/09 14:03:45;;;;;;;24.92;15.90;;;;;;;;;;4392777;32;20583;-51
2020/12/09 14:06:11;;;;;;;20.17;16.27;;;;;;;;;;4392480;32;20415;-53
2020/12/09 14:08:37;;;;;;;20.77;15.60;;;;;;;;;;4392990;32;20511;-52
2020/12/09 14:11:03;;;;;;;23.48;16.62;;;;;;;;;;4392613;32;20475;-51
2020/12/09 14:13:29;;;;;;;25.55;19.90;;;;;;;;;;4389852;32;20130;-51
2020/12/09 14:15:56;;;;;;;21.30;18.05;;;;;;;;;;4377388;32;20120;-53
2020/12/09 14:18:22;;;;;;;24.05;18.75;;;;;;;;;;4377657;32;20102;-53
2020/12/09 14:20:55;;;;;;;21.73;17.40;;;;;;;;;;4377761;32;20186;-52
2020/12/09 14:23:21;;;;;;;28.00;23.55;;;;;;;;;;4377454;32;20123;-54
2020/12/09 14:25:47;;;;;;;60.60;49.38;;;;;;;;;;4377792;32;20480;-54